createdAt,value
2019-03-03T00:46:41.741Z,4.33
2019-03-03T00:49:29.183Z,3.80
2019-03-03T00:52:01.977Z,3.87
2019-03-03T00:54:33.636Z,3.60
2019-03-03T00:57:09.383Z,4.85
2019-03-03T00:59:54.771Z,4.70
2019-03-03T01:02:49.869Z,4.45
2019-03-03T01:05:52.157Z,4.53
2019-03-03T01:15:31.385Z,4.47
2019-03-03T01:18:25.549Z,4.12
2019-03-03T01:21:41.195Z,4.83
2019-03-03T01:24:33.375Z,5.12
2019-03-03T01:27:03.053Z,5.67
2019-03-03T01:29:34.417Z,4.45
2019-03-03T01:32:08.411Z,4.55
2019-03-03T01:34:38.040Z,4.67
2019-03-03T01:37:08.723Z,5.28
2019-03-03T01:39:39.273Z,4.28
2019-03-03T01:42:08.810Z,5.00
2019-03-03T01:44:38.419Z,4.78
2019-03-03T01:47:13.676Z,5.20
2019-03-03T01:49:43.985Z,5.25
2019-03-03T01:52:21.364Z,4.97
2019-03-03T02:07:39.532Z,5.03
2019-03-03T02:10:20.836Z,5.17
2019-03-03T02:13:08.294Z,4.75
2019-03-03T02:16:01.699Z,4.78
2019-03-03T02:18:43.237Z,5.20
2019-03-03T02:21:28.399Z,5.62
2019-03-03T02:24:13.666Z,5.85
2019-03-03T02:27:17.960Z,5.65
2019-03-03T02:29:42.692Z,5.10
2019-03-03T02:32:56.735Z,5.20
2019-03-03T02:35:49.040Z,5.55
2019-03-03T02:38:32.264Z,5.10
2019-03-03T02:41:28.575Z,5.60
2019-03-03T02:43:57.232Z,4.72
2019-03-03T02:49:47.691Z,5.62
2019-03-03T02:52:24.357Z,5.65
2019-03-03T02:55:00.488Z,4.42
2019-03-03T02:57:35.136Z,5.72
2019-03-03T03:00:23.702Z,5.87
2019-03-03T03:03:07.457Z,5.53
2019-03-03T03:05:53.661Z,5.50
2019-03-03T03:08:36.617Z,5.67
2019-03-03T03:11:23.917Z,5.58
2019-03-03T03:16:50.615Z,6.12
2019-03-03T03:19:43.598Z,5.53
2019-03-03T03:22:34.002Z,5.45
2019-03-03T03:25:15.723Z,5.50
2019-03-03T03:28:14.955Z,6.92
2019-03-03T03:31:27.327Z,5.85
2019-03-03T03:34:10.378Z,6.45
2019-03-03T03:36:41.456Z,6.80
2019-03-03T03:39:12.725Z,5.75
2019-03-03T03:41:46.924Z,8.10
2019-03-03T03:44:28.210Z,6.40
2019-03-03T03:47:02.160Z,6.08
2019-03-03T03:49:40.076Z,6.65
2019-03-03T03:52:23.229Z,6.22
2019-03-03T03:55:09.523Z,5.78
2019-03-03T03:58:01.033Z,6.28
2019-03-03T04:00:46.185Z,5.40
2019-03-03T04:03:35.026Z,6.65
2019-03-03T04:36:58.353Z,6.30
2019-03-03T04:38:39.108Z,7.03
2019-03-03T04:45:10.737Z,7.28
2019-03-03T05:15:04.235Z,7.62
2019-03-03T07:50:22.835Z,12.58
2019-03-03T08:36:24.039Z,12.60
2019-03-03T09:14:43.390Z,7.20
2019-03-03T09:16:31.015Z,9.43
2019-03-03T09:19:14.614Z,9.35
2019-03-03T09:21:54.300Z,8.33
2019-03-03T09:24:28.026Z,7.50
2019-03-03T09:27:07.998Z,9.20
2019-03-03T09:29:50.751Z,9.55
2019-03-03T09:32:30.541Z,7.53
2019-03-03T09:35:01.814Z,8.93
2019-03-03T09:37:48.632Z,7.53
2019-03-03T09:40:25.527Z,7.62
2019-03-03T09:43:02.187Z,8.60
2019-03-03T09:45:45.298Z,7.10
2019-03-03T09:48:17.676Z,6.92
2019-03-03T09:51:01.432Z,6.55
2019-03-03T09:53:35.317Z,6.15
2019-03-03T09:56:15.175Z,6.80
2019-03-03T09:59:02.107Z,6.80
2019-03-03T10:01:45.624Z,7.30
2019-03-03T10:04:22.619Z,6.92
2019-03-03T10:07:30.259Z,6.30
2019-03-03T10:13:46.437Z,7.53
2019-03-03T10:16:17.507Z,6.83
2019-03-03T10:18:54.425Z,6.35
2019-03-03T10:21:43.691Z,6.58
2019-03-03T10:24:24.607Z,8.05
2019-03-03T10:26:55.686Z,7.20
2019-03-03T10:29:37.976Z,6.72
2019-03-03T10:35:27.122Z,7.60
2019-03-03T10:38:09.202Z,7.72
2019-03-03T10:40:48.983Z,7.55
2019-03-03T10:43:20.069Z,6.97
2019-03-03T10:49:07.646Z,6.28
2019-03-03T10:51:45.442Z,7.08
2019-03-03T10:54:32.574Z,6.50
2019-03-03T10:57:08.628Z,6.80
2019-03-03T10:59:55.744Z,6.47
2019-03-03T11:02:28.242Z,6.37
2019-03-03T11:05:26.995Z,7.55
2019-03-03T11:08:07.291Z,8.00
2019-03-03T11:11:07.585Z,6.72
2019-03-03T11:13:55.206Z,7.75
2019-03-03T11:16:33.667Z,7.58
2019-03-03T11:19:05.229Z,7.85
2019-03-03T11:21:54.050Z,8.43
2019-03-03T11:24:35.709Z,8.48
2019-03-03T11:27:06.886Z,7.53
2019-03-03T11:29:39.719Z,7.90
2019-03-03T11:32:27.144Z,7.97
2019-03-03T11:35:14.371Z,8.33
2019-03-03T11:40:47.117Z,9.10
2019-03-03T11:43:18.295Z,8.88
2019-03-03T11:45:57.908Z,9.23
2019-03-03T11:48:45.157Z,8.95
2019-03-03T11:51:32.181Z,8.98
2019-03-03T11:54:06.139Z,9.28
2019-03-03T11:56:48.934Z,9.38
2019-03-03T11:59:23.057Z,9.55
2019-03-03T12:02:10.316Z,9.28
2019-03-03T12:04:41.334Z,8.85
2019-03-03T12:07:12.317Z,8.50
2019-03-03T12:09:43.269Z,8.63
2019-03-03T12:12:19.362Z,9.28
2019-03-03T12:14:50.759Z,8.73
2019-03-03T12:17:36.566Z,8.53
2019-03-03T12:20:11.966Z,8.65
2019-03-03T12:22:43.103Z,10.63
2019-03-03T12:25:22.231Z,10.23
2019-03-03T12:27:53.179Z,9.15
2019-03-03T12:30:24.150Z,11.08
2019-03-03T12:32:58.511Z,8.83
2019-03-03T12:35:35.625Z,8.88
2019-03-03T12:38:06.579Z,8.40
2019-03-03T12:40:46.290Z,8.85
2019-03-03T12:43:22.889Z,8.35
2019-03-03T12:45:59.629Z,9.03
2019-03-03T12:48:36.447Z,9.30
2019-03-03T12:51:16.046Z,8.75
2019-03-03T12:54:03.257Z,8.90
2019-03-03T12:56:36.936Z,9.28
2019-03-03T12:59:07.994Z,8.68
2019-03-03T13:01:42.043Z,9.50
2019-03-03T13:04:15.816Z,8.33
2019-03-03T13:07:04.640Z,9.20
2019-03-03T13:09:44.857Z,9.63
2019-03-03T13:12:24.943Z,9.68
2019-03-03T13:15:00.022Z,9.43
2019-03-03T13:17:48.474Z,9.03
2019-03-03T13:20:19.774Z,9.73
2019-03-03T13:22:53.317Z,9.50
2019-03-03T13:25:27.102Z,9.53
2019-03-03T13:27:59.847Z,9.60
2019-03-03T13:30:47.035Z,10.58
2019-03-03T13:33:25.031Z,10.13
2019-03-03T13:36:20.289Z,8.90
2019-03-03T18:37:24.799Z,6.22
2019-03-03T18:40:09.866Z,5.97
2019-03-03T18:42:45.911Z,6.72
2019-03-03T18:45:23.605Z,5.92
2019-03-03T18:58:21.179Z,5.58
2019-03-03T19:22:47.748Z,5.42
2019-03-03T19:34:38.297Z,3.70
2019-03-03T19:40:54.196Z,4.15
2019-03-03T19:43:46.378Z,3.37
2019-03-03T19:46:28.121Z,3.90
2019-03-03T19:52:42.398Z,3.70
2019-03-03T19:55:50.846Z,4.37
2019-03-03T20:01:56.663Z,3.75
2019-03-03T20:05:07.156Z,4.78
2019-03-03T20:07:56.127Z,4.55
2019-03-03T20:11:03.987Z,4.62
2019-03-03T20:35:44.439Z,5.12
2019-03-03T20:39:05.287Z,5.00
2019-03-03T21:28:42.272Z,5.08
